Terminal Aerodrome Forecast
Issued by NWS

Home | Current Version | Previous Version | Text Only | Print | Product List | Glossary On
Versions: 1 2 3 4 5 6 7 8 9 10 11 12 13 14 15 16
000
FTUS45 KRIW 211700
TAFJAC
TAF
KJAC 211720Z 2118/2218 VRB04KT P6SM SCT150
     FM211900 17006KT P6SM SCT080
     FM220000 18006KT P6SM VCTS SCT060CB BKN100
     FM220400 18005KT P6SM -SHRA SCT035 BKN050
      AMD LTD TO CLD VIS AND WIND=

USA.gov is the U.S. government's official web portal to all federal, state and local government web resources and services.